sensor_id;sensor_type;location;lat;lon;timestamp;P1;durP1;ratioP1;P2;durP2;ratioP2
63807;SDS011;49961;43.970;22.868;2022-10-30T00:00:56;17.80;;;15.40;;
63807;SDS011;49961;43.970;22.868;2022-10-30T00:01:56;18.23;;;15.30;;
63807;SDS011;49961;43.970;22.868;2022-10-30T00:02:57;17.17;;;15.27;;
63807;SDS011;49961;43.970;22.868;2022-10-30T00:03:57;18.77;;;15.23;;
63807;SDS011;49961;43.970;22.868;2022-10-30T00:04:57;18.47;;;14.00;;
63807;SDS011;49961;43.970;22.868;2022-10-30T00:05:58;18.33;;;13.93;;
63807;SDS011;49961;43.970;22.868;2022-10-30T00:06:58;21.03;;;12.50;;
63807;SDS011;49961;43.970;22.868;2022-10-30T00:07:59;17.90;;;13.27;;
63807;SDS011;49961;43.970;22.868;2022-10-30T00:08:59;14.90;;;12.53;;
63807;SDS011;49961;43.970;22.868;2022-10-30T00:10:00;17.33;;;13.63;;
63807;SDS011;49961;43.970;22.868;2022-10-30T00:11:04;15.80;;;13.80;;
63807;SDS011;49961;43.970;22.868;2022-10-30T00:12:08;27.30;;;15.40;;
63807;SDS011;49961;43.970;22.868;2022-10-30T00:13:09;17.70;;;15.60;;
63807;SDS011;49961;43.970;22.868;2022-10-30T00:14:10;19.93;;;15.43;;
63807;SDS011;49961;43.970;22.868;2022-10-30T00:15:11;17.77;;;15.93;;
63807;SDS011;49961;43.970;22.868;2022-10-30T00:16:11;16.93;;;15.27;;
63807;SDS011;49961;43.970;22.868;2022-10-30T00:17:12;20.37;;;15.77;;
63807;SDS011;49961;43.970;22.868;2022-10-30T00:18:12;16.97;;;15.23;;
63807;SDS011;49961;43.970;22.868;2022-10-30T00:19:13;16.50;;;14.80;;
63807;SDS011;49961;43.970;22.868;2022-10-30T00:20:13;16.80;;;14.63;;
63807;SDS011;49961;43.970;22.868;2022-10-30T00:21:14;17.87;;;14.90;;
63807;SDS011;49961;43.970;22.868;2022-10-30T00:22:15;18.10;;;14.47;;
63807;SDS011;49961;43.970;22.868;2022-10-30T00:23:15;17.50;;;13.97;;
63807;SDS011;49961;43.970;22.868;2022-10-30T00:24:16;15.83;;;14.17;;
63807;SDS011;49961;43.970;22.868;2022-10-30T00:25:16;15.87;;;13.70;;
63807;SDS011;49961;43.970;22.868;2022-10-30T00:26:17;14.47;;;12.83;;
63807;SDS011;49961;43.970;22.868;2022-10-30T00:27:19;16.00;;;12.50;;
63807;SDS011;49961;43.970;22.868;2022-10-30T00:28:19;13.87;;;12.47;;
63807;SDS011;49961;43.970;22.868;2022-10-30T00:29:20;17.30;;;12.23;;
63807;SDS011;49961;43.970;22.868;2022-10-30T00:30:25;13.73;;;11.47;;
63807;SDS011;49961;43.970;22.868;2022-10-30T00:31:25;12.53;;;10.97;;
63807;SDS011;49961;43.970;22.868;2022-10-30T00:32:26;14.13;;;11.27;;
63807;SDS011;49961;43.970;22.868;2022-10-30T00:33:27;14.23;;;12.63;;
63807;SDS011;49961;43.970;22.868;2022-10-30T00:34:28;15.83;;;11.37;;
63807;SDS011;49961;43.970;22.868;2022-10-30T00:35:28;16.40;;;13.17;;
63807;SDS011;49961;43.970;22.868;2022-10-30T00:36:29;15.53;;;13.10;;
63807;SDS011;49961;43.970;22.868;2022-10-30T00:37:30;14.80;;;13.30;;
63807;SDS011;49961;43.970;22.868;2022-10-30T00:38:31;15.77;;;14.17;;
63807;SDS011;49961;43.970;22.868;2022-10-30T00:39:31;18.77;;;13.63;;
63807;SDS011;49961;43.970;22.868;2022-10-30T00:40:32;17.03;;;14.50;;
63807;SDS011;49961;43.970;22.868;2022-10-30T00:41:33;16.30;;;12.17;;
63807;SDS011;49961;43.970;22.868;2022-10-30T00:42:33;15.37;;;11.43;;
63807;SDS011;49961;43.970;22.868;2022-10-30T00:43:36;17.03;;;11.90;;
63807;SDS011;49961;43.970;22.868;2022-10-30T00:44:48;15.73;;;12.77;;
63807;SDS011;49961;43.970;22.868;2022-10-30T00:45:51;14.50;;;12.33;;
63807;SDS011;49961;43.970;22.868;2022-10-30T00:46:52;14.77;;;12.40;;
63807;SDS011;49961;43.970;22.868;2022-10-30T00:47:56;16.13;;;12.60;;
63807;SDS011;49961;43.970;22.868;2022-10-30T00:49:16;15.97;;;12.70;;
63807;SDS011;49961;43.970;22.868;2022-10-30T00:50:21;15.30;;;13.53;;
63807;SDS011;49961;43.970;22.868;2022-10-30T00:51:27;15.33;;;12.77;;
63807;SDS011;49961;43.970;22.868;2022-10-30T00:52:30;14.90;;;13.07;;
63807;SDS011;49961;43.970;22.868;2022-10-30T00:53:35;16.07;;;14.37;;
63807;SDS011;49961;43.970;22.868;2022-10-30T00:54:35;15.73;;;13.43;;
63807;SDS011;49961;43.970;22.868;2022-10-30T00:55:37;15.73;;;12.73;;
63807;SDS011;49961;43.970;22.868;2022-10-30T00:56:41;17.10;;;13.43;;
63807;SDS011;49961;43.970;22.868;2022-10-30T00:57:42;15.20;;;13.63;;
63807;SDS011;49961;43.970;22.868;2022-10-30T00:58:46;16.23;;;13.43;;
63807;SDS011;49961;43.970;22.868;2022-10-30T00:59:50;15.00;;;13.37;;
63807;SDS011;49961;43.970;22.868;2022-10-30T01:00:52;17.63;;;13.20;;
63807;SDS011;49961;43.970;22.868;2022-10-30T01:01:56;17.37;;;13.63;;
63807;SDS011;49961;43.970;22.868;2022-10-30T01:02:57;18.17;;;12.47;;
63807;SDS011;49961;43.970;22.868;2022-10-30T01:03:58;15.87;;;13.23;;
63807;SDS011;49961;43.970;22.868;2022-10-30T01:05:01;15.30;;;12.93;;
63807;SDS011;49961;43.970;22.868;2022-10-30T01:06:03;14.07;;;12.57;;
63807;SDS011;49961;43.970;22.868;2022-10-30T01:07:11;14.83;;;12.73;;
63807;SDS011;49961;43.970;22.868;2022-10-30T01:08:14;14.50;;;12.67;;
63807;SDS011;49961;43.970;22.868;2022-10-30T01:09:15;18.03;;;13.13;;
63807;SDS011;49961;43.970;22.868;2022-10-30T01:10:15;14.20;;;12.23;;
63807;SDS011;49961;43.970;22.868;2022-10-30T01:11:16;13.73;;;12.33;;
63807;SDS011;49961;43.970;22.868;2022-10-30T01:12:17;14.30;;;12.53;;
63807;SDS011;49961;43.970;22.868;2022-10-30T01:13:17;15.23;;;12.37;;
63807;SDS011;49961;43.970;22.868;2022-10-30T01:14:20;15.83;;;11.83;;
63807;SDS011;49961;43.970;22.868;2022-10-30T01:15:25;14.40;;;12.80;;
63807;SDS011;49961;43.970;22.868;2022-10-30T01:18:12;15.40;;;13.17;;
63807;SDS011;49961;43.970;22.868;2022-10-30T01:19:25;15.17;;;12.53;;
63807;SDS011;49961;43.970;22.868;2022-10-30T01:21:48;16.07;;;12.87;;
63807;SDS011;49961;43.970;22.868;2022-10-30T01:26:45;13.97;;;12.07;;
63807;SDS011;49961;43.970;22.868;2022-10-30T01:32:51;14.03;;;12.53;;
63807;SDS011;49961;43.970;22.868;2022-10-30T01:34:20;14.77;;;12.67;;
63807;SDS011;49961;43.970;22.868;2022-10-30T01:35:23;15.47;;;13.13;;
63807;SDS011;49961;43.970;22.868;2022-10-30T01:38:43;20.10;;;13.50;;
63807;SDS011;49961;43.970;22.868;2022-10-30T01:39:49;15.27;;;12.90;;
63807;SDS011;49961;43.970;22.868;2022-10-30T01:40:49;15.77;;;12.87;;
63807;SDS011;49961;43.970;22.868;2022-10-30T01:41:50;15.93;;;12.60;;
63807;SDS011;49961;43.970;22.868;2022-10-30T01:42:51;15.70;;;12.90;;
63807;SDS011;49961;43.970;22.868;2022-10-30T01:43:55;16.13;;;13.83;;
63807;SDS011;49961;43.970;22.868;2022-10-30T01:45:00;15.97;;;14.13;;
63807;SDS011;49961;43.970;22.868;2022-10-30T01:46:10;18.03;;;13.60;;
63807;SDS011;49961;43.970;22.868;2022-10-30T01:48:46;15.07;;;13.37;;
63807;SDS011;49961;43.970;22.868;2022-10-30T01:52:54;18.37;;;12.37;;
63807;SDS011;49961;43.970;22.868;2022-10-30T01:58:13;16.60;;;12.33;;
63807;SDS011;49961;43.970;22.868;2022-10-30T01:59:28;17.03;;;13.53;;
63807;SDS011;49961;43.970;22.868;2022-10-30T02:00:32;16.10;;;12.57;;
63807;SDS011;49961;43.970;22.868;2022-10-30T02:01:32;15.67;;;11.83;;
63807;SDS011;49961;43.970;22.868;2022-10-30T02:02:35;14.27;;;12.63;;
63807;SDS011;49961;43.970;22.868;2022-10-30T02:03:36;15.13;;;12.33;;
63807;SDS011;49961;43.970;22.868;2022-10-30T02:04:37;14.57;;;13.10;;
63807;SDS011;49961;43.970;22.868;2022-10-30T02:05:42;15.60;;;13.33;;
63807;SDS011;49961;43.970;22.868;2022-10-30T02:06:46;14.90;;;12.80;;
63807;SDS011;49961;43.970;22.868;2022-10-30T02:07:47;15.73;;;12.60;;
63807;SDS011;49961;43.970;22.868;2022-10-30T02:08:47;17.20;;;13.13;;
63807;SDS011;49961;43.970;22.868;2022-10-30T02:09:49;13.53;;;12.13;;
63807;SDS011;49961;43.970;22.868;2022-10-30T02:10:51;14.63;;;12.97;;
63807;SDS011;49961;43.970;22.868;2022-10-30T02:11:53;16.20;;;12.57;;
63807;SDS011;49961;43.970;22.868;2022-10-30T02:12:54;15.07;;;12.23;;
63807;SDS011;49961;43.970;22.868;2022-10-30T02:13:55;16.00;;;13.10;;
63807;SDS011;49961;43.970;22.868;2022-10-30T02:14:57;18.53;;;13.73;;
63807;SDS011;49961;43.970;22.868;2022-10-30T02:15:59;17.50;;;13.30;;
63807;SDS011;49961;43.970;22.868;2022-10-30T02:17:00;15.73;;;13.57;;
63807;SDS011;49961;43.970;22.868;2022-10-30T02:18:03;15.70;;;13.47;;
63807;SDS011;49961;43.970;22.868;2022-10-30T02:19:04;15.80;;;14.10;;
63807;SDS011;49961;43.970;22.868;2022-10-30T02:20:06;19.60;;;13.70;;
63807;SDS011;49961;43.970;22.868;2022-10-30T02:21:13;15.33;;;13.73;;
63807;SDS011;49961;43.970;22.868;2022-10-30T02:22:14;15.83;;;13.67;;
63807;SDS011;49961;43.970;22.868;2022-10-30T02:23:16;17.60;;;13.90;;
63807;SDS011;49961;43.970;22.868;2022-10-30T02:24:18;18.30;;;15.73;;
63807;SDS011;49961;43.970;22.868;2022-10-30T02:25:19;18.03;;;15.77;;
63807;SDS011;49961;43.970;22.868;2022-10-30T02:26:19;18.77;;;16.40;;
63807;SDS011;49961;43.970;22.868;2022-10-30T02:27:20;19.83;;;16.43;;
63807;SDS011;49961;43.970;22.868;2022-10-30T02:28:20;23.07;;;17.30;;
63807;SDS011;49961;43.970;22.868;2022-10-30T02:29:21;21.13;;;16.40;;
63807;SDS011;49961;43.970;22.868;2022-10-30T02:30:21;21.50;;;16.00;;
63807;SDS011;49961;43.970;22.868;2022-10-30T02:31:22;17.77;;;14.63;;
63807;SDS011;49961;43.970;22.868;2022-10-30T02:32:22;16.40;;;13.60;;
63807;SDS011;49961;43.970;22.868;2022-10-30T02:33:23;16.93;;;13.00;;
63807;SDS011;49961;43.970;22.868;2022-10-30T02:34:23;15.03;;;11.60;;
63807;SDS011;49961;43.970;22.868;2022-10-30T02:35:24;16.50;;;12.43;;
63807;SDS011;49961;43.970;22.868;2022-10-30T02:36:24;13.97;;;11.93;;
63807;SDS011;49961;43.970;22.868;2022-10-30T02:37:25;16.43;;;12.20;;
63807;SDS011;49961;43.970;22.868;2022-10-30T02:38:26;16.63;;;13.10;;
63807;SDS011;49961;43.970;22.868;2022-10-30T02:39:26;18.67;;;13.10;;
63807;SDS011;49961;43.970;22.868;2022-10-30T02:40:27;21.73;;;14.33;;
63807;SDS011;49961;43.970;22.868;2022-10-30T02:41:27;20.13;;;14.73;;
63807;SDS011;49961;43.970;22.868;2022-10-30T02:42:28;17.23;;;14.73;;
63807;SDS011;49961;43.970;22.868;2022-10-30T02:43:28;15.27;;;12.73;;
63807;SDS011;49961;43.970;22.868;2022-10-30T02:44:29;14.40;;;11.13;;
63807;SDS011;49961;43.970;22.868;2022-10-30T02:45:29;19.00;;;12.60;;
63807;SDS011;49961;43.970;22.868;2022-10-30T02:46:29;13.63;;;11.60;;
63807;SDS011;49961;43.970;22.868;2022-10-30T02:47:30;19.03;;;13.13;;
63807;SDS011;49961;43.970;22.868;2022-10-30T02:48:30;14.97;;;12.40;;
63807;SDS011;49961;43.970;22.868;2022-10-30T02:49:31;18.97;;;12.97;;
63807;SDS011;49961;43.970;22.868;2022-10-30T02:50:32;16.37;;;12.77;;
63807;SDS011;49961;43.970;22.868;2022-10-30T02:51:33;16.03;;;13.90;;
63807;SDS011;49961;43.970;22.868;2022-10-30T02:52:33;17.63;;;13.27;;
63807;SDS011;49961;43.970;22.868;2022-10-30T02:53:33;16.27;;;13.67;;
63807;SDS011;49961;43.970;22.868;2022-10-30T02:54:34;15.17;;;13.57;;
63807;SDS011;49961;43.970;22.868;2022-10-30T02:55:35;16.97;;;14.10;;
63807;SDS011;49961;43.970;22.868;2022-10-30T02:56:35;15.00;;;13.27;;
63807;SDS011;49961;43.970;22.868;2022-10-30T02:57:36;19.20;;;13.50;;
63807;SDS011;49961;43.970;22.868;2022-10-30T02:58:36;18.97;;;13.97;;
63807;SDS011;49961;43.970;22.868;2022-10-30T02:59:36;17.87;;;13.20;;
63807;SDS011;49961;43.970;22.868;2022-10-30T03:00:37;15.40;;;13.83;;
63807;SDS011;49961;43.970;22.868;2022-10-30T03:01:37;16.00;;;13.87;;
63807;SDS011;49961;43.970;22.868;2022-10-30T03:02:38;15.37;;;12.90;;
63807;SDS011;49961;43.970;22.868;2022-10-30T03:03:38;17.13;;;13.37;;
63807;SDS011;49961;43.970;22.868;2022-10-30T03:04:39;25.03;;;14.83;;
63807;SDS011;49961;43.970;22.868;2022-10-30T03:05:40;29.50;;;14.43;;
63807;SDS011;49961;43.970;22.868;2022-10-30T03:06:40;24.77;;;14.43;;
63807;SDS011;49961;43.970;22.868;2022-10-30T03:07:41;29.90;;;13.80;;
63807;SDS011;49961;43.970;22.868;2022-10-30T03:08:42;24.67;;;13.83;;
63807;SDS011;49961;43.970;22.868;2022-10-30T03:09:43;26.73;;;13.47;;
63807;SDS011;49961;43.970;22.868;2022-10-30T03:10:43;21.37;;;13.90;;
63807;SDS011;49961;43.970;22.868;2022-10-30T03:11:44;22.50;;;14.10;;
63807;SDS011;49961;43.970;22.868;2022-10-30T03:12:44;21.17;;;14.67;;
63807;SDS011;49961;43.970;22.868;2022-10-30T03:13:45;22.10;;;16.47;;
63807;SDS011;49961;43.970;22.868;2022-10-30T03:14:46;21.90;;;14.93;;
63807;SDS011;49961;43.970;22.868;2022-10-30T03:15:46;28.00;;;15.10;;
63807;SDS011;49961;43.970;22.868;2022-10-30T03:16:47;22.00;;;12.90;;
63807;SDS011;49961;43.970;22.868;2022-10-30T03:17:47;27.53;;;16.17;;
63807;SDS011;49961;43.970;22.868;2022-10-30T03:18:51;22.17;;;16.07;;
63807;SDS011;49961;43.970;22.868;2022-10-30T03:19:52;21.17;;;13.77;;
63807;SDS011;49961;43.970;22.868;2022-10-30T03:20:59;21.40;;;14.77;;
63807;SDS011;49961;43.970;22.868;2022-10-30T03:22:01;15.80;;;13.00;;
63807;SDS011;49961;43.970;22.868;2022-10-30T03:23:01;17.03;;;12.30;;
63807;SDS011;49961;43.970;22.868;2022-10-30T03:24:02;15.97;;;12.60;;
63807;SDS011;49961;43.970;22.868;2022-10-30T03:25:03;15.97;;;13.00;;
63807;SDS011;49961;43.970;22.868;2022-10-30T03:26:03;18.77;;;13.43;;
63807;SDS011;49961;43.970;22.868;2022-10-30T03:27:05;15.87;;;12.47;;
63807;SDS011;49961;43.970;22.868;2022-10-30T03:28:05;18.80;;;12.50;;
63807;SDS011;49961;43.970;22.868;2022-10-30T03:29:06;17.17;;;12.43;;
63807;SDS011;49961;43.970;22.868;2022-10-30T03:30:06;19.87;;;16.87;;
63807;SDS011;49961;43.970;22.868;2022-10-30T03:31:09;19.07;;;17.07;;
63807;SDS011;49961;43.970;22.868;2022-10-30T03:32:11;20.83;;;15.97;;
63807;SDS011;49961;43.970;22.868;2022-10-30T03:33:11;17.13;;;13.77;;
63807;SDS011;49961;43.970;22.868;2022-10-30T03:34:12;19.07;;;14.20;;
63807;SDS011;49961;43.970;22.868;2022-10-30T03:35:13;17.33;;;15.40;;
63807;SDS011;49961;43.970;22.868;2022-10-30T03:36:13;18.33;;;15.57;;
63807;SDS011;49961;43.970;22.868;2022-10-30T03:37:14;21.00;;;15.67;;
63807;SDS011;49961;43.970;22.868;2022-10-30T03:38:15;21.30;;;16.07;;
63807;SDS011;49961;43.970;22.868;2022-10-30T03:39:15;19.43;;;16.70;;
63807;SDS011;49961;43.970;22.868;2022-10-30T03:40:16;21.77;;;16.30;;
63807;SDS011;49961;43.970;22.868;2022-10-30T03:41:16;18.90;;;15.93;;
63807;SDS011;49961;43.970;22.868;2022-10-30T03:42:16;17.43;;;15.40;;
63807;SDS011;49961;43.970;22.868;2022-10-30T03:43:17;17.23;;;15.43;;
63807;SDS011;49961;43.970;22.868;2022-10-30T03:44:18;19.63;;;16.43;;
63807;SDS011;49961;43.970;22.868;2022-10-30T03:45:18;17.93;;;16.03;;
63807;SDS011;49961;43.970;22.868;2022-10-30T03:46:19;17.70;;;14.87;;
63807;SDS011;49961;43.970;22.868;2022-10-30T03:47:19;15.57;;;11.73;;
63807;SDS011;49961;43.970;22.868;2022-10-30T03:48:20;18.50;;;12.70;;
63807;SDS011;49961;43.970;22.868;2022-10-30T03:49:22;16.80;;;13.87;;
63807;SDS011;49961;43.970;22.868;2022-10-30T03:50:23;14.10;;;12.70;;
63807;SDS011;49961;43.970;22.868;2022-10-30T03:51:23;15.43;;;12.50;;
63807;SDS011;49961;43.970;22.868;2022-10-30T03:52:24;16.10;;;12.07;;
63807;SDS011;49961;43.970;22.868;2022-10-30T03:53:24;17.13;;;12.53;;
63807;SDS011;49961;43.970;22.868;2022-10-30T03:54:27;18.90;;;13.17;;
63807;SDS011;49961;43.970;22.868;2022-10-30T03:55:27;14.87;;;12.13;;
63807;SDS011;49961;43.970;22.868;2022-10-30T03:56:28;15.70;;;12.53;;
63807;SDS011;49961;43.970;22.868;2022-10-30T03:57:28;14.60;;;11.93;;
63807;SDS011;49961;43.970;22.868;2022-10-30T03:58:29;19.10;;;12.13;;
63807;SDS011;49961;43.970;22.868;2022-10-30T03:59:29;17.13;;;11.90;;
63807;SDS011;49961;43.970;22.868;2022-10-30T04:00:30;16.77;;;12.67;;
63807;SDS011;49961;43.970;22.868;2022-10-30T04:01:31;14.37;;;12.17;;
63807;SDS011;49961;43.970;22.868;2022-10-30T04:02:31;14.30;;;12.00;;
63807;SDS011;49961;43.970;22.868;2022-10-30T04:03:32;15.50;;;12.00;;
63807;SDS011;49961;43.970;22.868;2022-10-30T04:04:32;15.23;;;11.83;;
63807;SDS011;49961;43.970;22.868;2022-10-30T04:05:33;17.57;;;12.27;;
63807;SDS011;49961;43.970;22.868;2022-10-30T04:06:34;14.80;;;11.83;;
63807;SDS011;49961;43.970;22.868;2022-10-30T04:07:34;13.90;;;12.27;;
63807;SDS011;49961;43.970;22.868;2022-10-30T04:08:34;14.93;;;12.83;;
63807;SDS011;49961;43.970;22.868;2022-10-30T04:09:35;16.80;;;12.70;;
63807;SDS011;49961;43.970;22.868;2022-10-30T04:10:35;15.53;;;13.00;;
63807;SDS011;49961;43.970;22.868;2022-10-30T04:11:36;17.93;;;12.73;;
63807;SDS011;49961;43.970;22.868;2022-10-30T04:12:36;16.27;;;12.27;;
63807;SDS011;49961;43.970;22.868;2022-10-30T04:13:37;13.93;;;12.50;;
63807;SDS011;49961;43.970;22.868;2022-10-30T04:14:38;14.70;;;11.83;;
63807;SDS011;49961;43.970;22.868;2022-10-30T04:15:38;13.90;;;12.50;;
63807;SDS011;49961;43.970;22.868;2022-10-30T04:16:39;15.53;;;12.63;;
63807;SDS011;49961;43.970;22.868;2022-10-30T04:17:39;17.47;;;12.57;;
63807;SDS011;49961;43.970;22.868;2022-10-30T04:18:40;16.80;;;12.87;;
63807;SDS011;49961;43.970;22.868;2022-10-30T04:19:41;18.90;;;12.80;;
63807;SDS011;49961;43.970;22.868;2022-10-30T04:20:42;16.67;;;11.57;;
63807;SDS011;49961;43.970;22.868;2022-10-30T04:21:43;14.20;;;12.70;;
63807;SDS011;49961;43.970;22.868;2022-10-30T04:22:46;16.10;;;12.87;;
63807;SDS011;49961;43.970;22.868;2022-10-30T04:23:47;14.40;;;11.67;;
63807;SDS011;49961;43.970;22.868;2022-10-30T04:24:48;14.87;;;12.17;;
63807;SDS011;49961;43.970;22.868;2022-10-30T04:25:48;16.07;;;12.23;;
63807;SDS011;49961;43.970;22.868;2022-10-30T04:26:49;16.93;;;12.27;;
63807;SDS011;49961;43.970;22.868;2022-10-30T04:27:49;16.83;;;12.40;;
63807;SDS011;49961;43.970;22.868;2022-10-30T04:28:51;15.13;;;11.77;;
63807;SDS011;49961;43.970;22.868;2022-10-30T04:29:52;14.80;;;11.60;;
63807;SDS011;49961;43.970;22.868;2022-10-30T04:30:52;14.73;;;11.50;;
63807;SDS011;49961;43.970;22.868;2022-10-30T04:31:53;14.00;;;11.43;;
63807;SDS011;49961;43.970;22.868;2022-10-30T04:32:54;15.17;;;11.97;;
63807;SDS011;49961;43.970;22.868;2022-10-30T04:33:55;15.87;;;11.97;;
63807;SDS011;49961;43.970;22.868;2022-10-30T04:34:55;16.07;;;12.33;;
63807;SDS011;49961;43.970;22.868;2022-10-30T04:35:56;14.93;;;12.47;;
63807;SDS011;49961;43.970;22.868;2022-10-30T04:36:56;18.00;;;12.20;;
63807;SDS011;49961;43.970;22.868;2022-10-30T04:38:01;22.10;;;13.00;;
63807;SDS011;49961;43.970;22.868;2022-10-30T04:39:03;27.00;;;14.47;;
63807;SDS011;49961;43.970;22.868;2022-10-30T04:40:03;26.43;;;14.30;;
63807;SDS011;49961;43.970;22.868;2022-10-30T04:41:04;18.40;;;12.67;;
63807;SDS011;49961;43.970;22.868;2022-10-30T04:42:05;23.60;;;13.60;;
63807;SDS011;49961;43.970;22.868;2022-10-30T04:43:06;26.73;;;14.40;;
63807;SDS011;49961;43.970;22.868;2022-10-30T04:44:07;19.70;;;14.07;;
63807;SDS011;49961;43.970;22.868;2022-10-30T04:45:07;18.47;;;13.57;;
63807;SDS011;49961;43.970;22.868;2022-10-30T04:46:08;18.10;;;14.03;;
63807;SDS011;49961;43.970;22.868;2022-10-30T04:47:08;18.97;;;14.77;;
63807;SDS011;49961;43.970;22.868;2022-10-30T04:48:10;20.83;;;15.00;;
63807;SDS011;49961;43.970;22.868;2022-10-30T04:49:15;16.07;;;14.23;;
63807;SDS011;49961;43.970;22.868;2022-10-30T04:50:15;15.50;;;14.00;;
63807;SDS011;49961;43.970;22.868;2022-10-30T04:51:16;26.63;;;14.37;;
63807;SDS011;49961;43.970;22.868;2022-10-30T04:52:17;23.53;;;13.43;;
63807;SDS011;49961;43.970;22.868;2022-10-30T04:53:17;24.77;;;13.97;;
63807;SDS011;49961;43.970;22.868;2022-10-30T04:54:18;18.13;;;12.63;;
63807;SDS011;49961;43.970;22.868;2022-10-30T04:55:20;20.77;;;13.27;;
63807;SDS011;49961;43.970;22.868;2022-10-30T04:56:20;18.30;;;12.30;;
63807;SDS011;49961;43.970;22.868;2022-10-30T04:57:21;24.43;;;13.23;;
63807;SDS011;49961;43.970;22.868;2022-10-30T04:58:21;18.50;;;12.77;;
63807;SDS011;49961;43.970;22.868;2022-10-30T04:59:21;21.80;;;12.67;;
63807;SDS011;49961;43.970;22.868;2022-10-30T05:00:22;23.50;;;12.60;;
63807;SDS011;49961;43.970;22.868;2022-10-30T05:01:23;18.20;;;12.53;;
63807;SDS011;49961;43.970;22.868;2022-10-30T05:02:24;23.10;;;12.50;;
63807;SDS011;49961;43.970;22.868;2022-10-30T05:03:24;19.53;;;12.87;;
63807;SDS011;49961;43.970;22.868;2022-10-30T05:04:25;21.60;;;12.53;;
63807;SDS011;49961;43.970;22.868;2022-10-30T05:05:25;22.40;;;13.73;;
63807;SDS011;49961;43.970;22.868;2022-10-30T05:06:27;20.93;;;12.67;;
63807;SDS011;49961;43.970;22.868;2022-10-30T05:07:29;18.10;;;12.60;;
63807;SDS011;49961;43.970;22.868;2022-10-30T05:08:30;17.63;;;12.40;;
63807;SDS011;49961;43.970;22.868;2022-10-30T05:09:30;21.07;;;12.43;;
63807;SDS011;49961;43.970;22.868;2022-10-30T05:10:31;16.57;;;12.13;;
63807;SDS011;49961;43.970;22.868;2022-10-30T05:11:31;19.27;;;11.70;;
63807;SDS011;49961;43.970;22.868;2022-10-30T05:12:32;13.33;;;11.27;;
63807;SDS011;49961;43.970;22.868;2022-10-30T05:13:32;15.57;;;12.00;;
63807;SDS011;49961;43.970;22.868;2022-10-30T05:14:33;15.60;;;11.93;;
63807;SDS011;49961;43.970;22.868;2022-10-30T05:15:33;15.07;;;12.10;;
63807;SDS011;49961;43.970;22.868;2022-10-30T05:16:33;14.67;;;11.90;;
63807;SDS011;49961;43.970;22.868;2022-10-30T05:17:34;14.33;;;11.50;;
63807;SDS011;49961;43.970;22.868;2022-10-30T05:18:34;18.93;;;12.17;;
63807;SDS011;49961;43.970;22.868;2022-10-30T05:19:35;13.47;;;11.80;;
63807;SDS011;49961;43.970;22.868;2022-10-30T05:20:35;18.10;;;12.83;;
63807;SDS011;49961;43.970;22.868;2022-10-30T05:21:36;15.97;;;12.33;;
63807;SDS011;49961;43.970;22.868;2022-10-30T05:22:36;16.33;;;11.90;;
63807;SDS011;49961;43.970;22.868;2022-10-30T05:23:36;17.10;;;11.80;;
63807;SDS011;49961;43.970;22.868;2022-10-30T05:24:37;15.97;;;12.53;;
63807;SDS011;49961;43.970;22.868;2022-10-30T05:25:37;19.83;;;13.43;;
63807;SDS011;49961;43.970;22.868;2022-10-30T05:26:38;17.73;;;12.73;;
63807;SDS011;49961;43.970;22.868;2022-10-30T05:27:38;14.93;;;12.17;;
63807;SDS011;49961;43.970;22.868;2022-10-30T05:28:39;15.10;;;12.17;;
63807;SDS011;49961;43.970;22.868;2022-10-30T05:29:41;15.53;;;11.90;;
63807;SDS011;49961;43.970;22.868;2022-10-30T05:30:41;14.90;;;12.57;;
63807;SDS011;49961;43.970;22.868;2022-10-30T05:31:42;17.40;;;12.57;;
63807;SDS011;49961;43.970;22.868;2022-10-30T05:32:42;21.40;;;12.57;;
63807;SDS011;49961;43.970;22.868;2022-10-30T05:33:43;19.50;;;12.83;;
63807;SDS011;49961;43.970;22.868;2022-10-30T05:34:43;16.80;;;13.10;;
63807;SDS011;49961;43.970;22.868;2022-10-30T05:35:44;19.17;;;13.47;;
63807;SDS011;49961;43.970;22.868;2022-10-30T05:36:45;15.97;;;12.83;;
63807;SDS011;49961;43.970;22.868;2022-10-30T05:37:45;14.47;;;12.70;;
63807;SDS011;49961;43.970;22.868;2022-10-30T05:38:46;17.30;;;13.27;;
63807;SDS011;49961;43.970;22.868;2022-10-30T05:39:46;20.27;;;13.67;;
63807;SDS011;49961;43.970;22.868;2022-10-30T05:40:46;19.93;;;13.63;;
63807;SDS011;49961;43.970;22.868;2022-10-30T05:41:47;16.90;;;13.73;;
63807;SDS011;49961;43.970;22.868;2022-10-30T05:42:47;18.37;;;12.30;;
63807;SDS011;49961;43.970;22.868;2022-10-30T05:43:48;20.83;;;14.03;;
63807;SDS011;49961;43.970;22.868;2022-10-30T05:44:48;15.17;;;13.13;;
63807;SDS011;49961;43.970;22.868;2022-10-30T05:45:49;16.07;;;13.07;;
63807;SDS011;49961;43.970;22.868;2022-10-30T05:46:49;19.63;;;13.33;;
63807;SDS011;49961;43.970;22.868;2022-10-30T05:47:53;15.27;;;13.33;;
63807;SDS011;49961;43.970;22.868;2022-10-30T05:48:55;16.03;;;13.40;;
63807;SDS011;49961;43.970;22.868;2022-10-30T05:50:03;15.40;;;12.80;;
63807;SDS011;49961;43.970;22.868;2022-10-30T05:51:04;17.87;;;13.57;;
63807;SDS011;49961;43.970;22.868;2022-10-30T05:52:05;19.17;;;14.17;;
63807;SDS011;49961;43.970;22.868;2022-10-30T05:53:06;15.67;;;13.23;;
63807;SDS011;49961;43.970;22.868;2022-10-30T05:54:06;15.70;;;13.67;;
63807;SDS011;49961;43.970;22.868;2022-10-30T05:55:06;17.33;;;13.93;;
63807;SDS011;49961;43.970;22.868;2022-10-30T05:56:07;16.53;;;14.27;;
63807;SDS011;49961;43.970;22.868;2022-10-30T05:57:08;18.40;;;15.27;;
63807;SDS011;49961;43.970;22.868;2022-10-30T05:58:08;16.97;;;14.63;;
63807;SDS011;49961;43.970;22.868;2022-10-30T05:59:09;17.33;;;15.23;;
63807;SDS011;49961;43.970;22.868;2022-10-30T06:00:09;19.93;;;14.67;;
63807;SDS011;49961;43.970;22.868;2022-10-30T06:01:10;18.60;;;13.60;;
63807;SDS011;49961;43.970;22.868;2022-10-30T06:02:11;16.17;;;14.43;;
63807;SDS011;49961;43.970;22.868;2022-10-30T06:03:11;18.27;;;14.70;;
63807;SDS011;49961;43.970;22.868;2022-10-30T06:04:12;17.27;;;14.70;;
63807;SDS011;49961;43.970;22.868;2022-10-30T06:05:13;14.97;;;13.00;;
63807;SDS011;49961;43.970;22.868;2022-10-30T06:06:13;19.20;;;14.50;;
63807;SDS011;49961;43.970;22.868;2022-10-30T06:07:14;15.77;;;13.47;;
63807;SDS011;49961;43.970;22.868;2022-10-30T06:08:15;15.13;;;13.40;;
63807;SDS011;49961;43.970;22.868;2022-10-30T06:09:15;14.93;;;13.43;;
63807;SDS011;49961;43.970;22.868;2022-10-30T06:10:16;14.90;;;13.33;;
63807;SDS011;49961;43.970;22.868;2022-10-30T06:11:16;18.10;;;13.87;;
63807;SDS011;49961;43.970;22.868;2022-10-30T06:12:17;14.57;;;13.10;;
63807;SDS011;49961;43.970;22.868;2022-10-30T06:13:17;15.40;;;13.77;;
63807;SDS011;49961;43.970;22.868;2022-10-30T06:14:17;15.67;;;13.60;;
63807;SDS011;49961;43.970;22.868;2022-10-30T06:15:18;15.10;;;13.50;;
63807;SDS011;49961;43.970;22.868;2022-10-30T06:16:18;14.60;;;13.07;;
63807;SDS011;49961;43.970;22.868;2022-10-30T06:17:19;15.03;;;12.87;;